Terminal Aerodrome Forecast
Issued by NWS Des Moines, IA

Home | Current Version | Previous Version | Text Only | Print | Product List | Glossary On
Versions: 1 2 3 4 5 6 7 8 9 10 11 12 13 14 15 16 17 18 19 20 21 22 23 24 25 26 27 28 29 30 31 32 33 34 35 36 37 38 39 40 41 42 43
000
FTUS43 KDMX 311720
TAFALO
TAF
KALO 311720Z 3118/0118 19010G18KT P6SM VCSH SCT030 BKN050
     FM312000 19010G19KT 6SM SHRA BR VCTS SCT030 BKN050CB
     FM010200 20005KT P6SM VCSH SCT020 BKN050 OVC100
     FM010700 24004KT P6SM SCT100 BKN250
     FM010800 VRB03KT 4SM BR SCT250
     FM011400 29008KT P6SM SCT040=

USA.gov is the U.S. government's official web portal to all federal, state and local government web resources and services.